sensor_id;sensor_type;location;lat;lon;timestamp;P1;durP1;ratioP1;P2;durP2;ratioP2
3415;SDS011;1721;51.238;9.562;2022-10-23T00:01:19;8.93;;;1.75;;
3415;SDS011;1721;51.238;9.562;2022-10-23T00:03:49;6.57;;;1.70;;
3415;SDS011;1721;51.238;9.562;2022-10-23T00:06:16;8.90;;;1.60;;
3415;SDS011;1721;51.238;9.562;2022-10-23T00:08:42;9.48;;;1.70;;
3415;SDS011;1721;51.238;9.562;2022-10-23T00:11:11;11.50;;;1.90;;
3415;SDS011;1721;51.238;9.562;2022-10-23T00:13:42;10.07;;;2.10;;
3415;SDS011;1721;51.238;9.562;2022-10-23T00:16:09;7.85;;;1.60;;
3415;SDS011;1721;51.238;9.562;2022-10-23T00:18:35;8.70;;;1.70;;
3415;SDS011;1721;51.238;9.562;2022-10-23T00:21:02;8.18;;;1.90;;
3415;SDS011;1721;51.238;9.562;2022-10-23T00:23:28;7.65;;;1.70;;
3415;SDS011;1721;51.238;9.562;2022-10-23T00:25:54;6.90;;;1.80;;
3415;SDS011;1721;51.238;9.562;2022-10-23T00:28:20;6.80;;;1.50;;
3415;SDS011;1721;51.238;9.562;2022-10-23T00:30:45;12.82;;;2.10;;
3415;SDS011;1721;51.238;9.562;2022-10-23T00:33:11;9.45;;;1.85;;
3415;SDS011;1721;51.238;9.562;2022-10-23T00:35:40;10.60;;;2.15;;
3415;SDS011;1721;51.238;9.562;2022-10-23T00:38:06;6.00;;;1.70;;
3415;SDS011;1721;51.238;9.562;2022-10-23T00:40:32;9.20;;;2.20;;
3415;SDS011;1721;51.238;9.562;2022-10-23T00:42:58;7.20;;;1.80;;
3415;SDS011;1721;51.238;9.562;2022-10-23T00:45:25;9.00;;;1.73;;
3415;SDS011;1721;51.238;9.562;2022-10-23T00:47:52;11.70;;;1.92;;
3415;SDS011;1721;51.238;9.562;2022-10-23T00:50:19;9.50;;;1.60;;
3415;SDS011;1721;51.238;9.562;2022-10-23T00:52:47;11.88;;;1.70;;
3415;SDS011;1721;51.238;9.562;2022-10-23T00:55:15;9.52;;;1.70;;
3415;SDS011;1721;51.238;9.562;2022-10-23T00:57:43;6.40;;;1.20;;
3415;SDS011;1721;51.238;9.562;2022-10-23T01:00:11;7.75;;;1.60;;
3415;SDS011;1721;51.238;9.562;2022-10-23T01:02:49;8.07;;;1.50;;
3415;SDS011;1721;51.238;9.562;2022-10-23T01:05:15;11.25;;;1.55;;
3415;SDS011;1721;51.238;9.562;2022-10-23T01:07:46;12.00;;;1.48;;
3415;SDS011;1721;51.238;9.562;2022-10-23T01:10:26;6.80;;;1.20;;
3415;SDS011;1721;51.238;9.562;2022-10-23T01:13:06;9.95;;;1.38;;
3415;SDS011;1721;51.238;9.562;2022-10-23T01:21:21;7.67;;;1.23;;
3415;SDS011;1721;51.238;9.562;2022-10-23T01:26:32;5.13;;;1.20;;
3415;SDS011;1721;51.238;9.562;2022-10-23T01:29:36;6.47;;;1.55;;
3415;SDS011;1721;51.238;9.562;2022-10-23T01:34:47;4.50;;;1.60;;
3415;SDS011;1721;51.238;9.562;2022-10-23T01:37:26;5.75;;;1.00;;
3415;SDS011;1721;51.238;9.562;2022-10-23T01:39:57;12.05;;;1.50;;
3415;SDS011;1721;51.238;9.562;2022-10-23T01:42:28;10.73;;;1.50;;
3415;SDS011;1721;51.238;9.562;2022-10-23T01:47:56;10.60;;;1.55;;
3415;SDS011;1721;51.238;9.562;2022-10-23T01:50:23;10.80;;;1.15;;
3415;SDS011;1721;51.238;9.562;2022-10-23T01:52:50;6.82;;;1.20;;
3415;SDS011;1721;51.238;9.562;2022-10-23T01:55:16;3.60;;;1.20;;
3415;SDS011;1721;51.238;9.562;2022-10-23T01:57:43;5.95;;;1.33;;
3415;SDS011;1721;51.238;9.562;2022-10-23T02:00:12;6.10;;;1.27;;
3415;SDS011;1721;51.238;9.562;2022-10-23T02:02:40;11.40;;;1.42;;
3415;SDS011;1721;51.238;9.562;2022-10-23T02:05:14;10.55;;;1.35;;
3415;SDS011;1721;51.238;9.562;2022-10-23T02:07:52;5.80;;;1.20;;
3415;SDS011;1721;51.238;9.562;2022-10-23T02:10:19;8.20;;;1.30;;
3415;SDS011;1721;51.238;9.562;2022-10-23T02:13:20;7.85;;;1.40;;
3415;SDS011;1721;51.238;9.562;2022-10-23T02:16:00;7.50;;;1.15;;
3415;SDS011;1721;51.238;9.562;2022-10-23T02:18:39;11.45;;;1.50;;
3415;SDS011;1721;51.238;9.562;2022-10-23T02:21:18;7.18;;;1.30;;
3415;SDS011;1721;51.238;9.562;2022-10-23T02:24:00;7.68;;;1.40;;
3415;SDS011;1721;51.238;9.562;2022-10-23T02:26:31;11.27;;;1.63;;
3415;SDS011;1721;51.238;9.562;2022-10-23T02:29:06;7.00;;;1.30;;
3415;SDS011;1721;51.238;9.562;2022-10-23T02:31:35;5.80;;;1.25;;
3415;SDS011;1721;51.238;9.562;2022-10-23T02:34:01;4.70;;;1.20;;
3415;SDS011;1721;51.238;9.562;2022-10-23T02:36:27;6.38;;;1.45;;
3415;SDS011;1721;51.238;9.562;2022-10-23T02:38:52;6.70;;;1.50;;
3415;SDS011;1721;51.238;9.562;2022-10-23T02:52:14;5.32;;;1.35;;
3415;SDS011;1721;51.238;9.562;2022-10-23T02:54:50;9.45;;;1.50;;
3415;SDS011;1721;51.238;9.562;2022-10-23T03:02:40;6.85;;;1.70;;
3415;SDS011;1721;51.238;9.562;2022-10-23T03:05:12;7.30;;;1.37;;
3415;SDS011;1721;51.238;9.562;2022-10-23T03:07:41;5.80;;;1.25;;
3415;SDS011;1721;51.238;9.562;2022-10-23T03:10:08;4.60;;;1.33;;
3415;SDS011;1721;51.238;9.562;2022-10-23T03:12:34;8.30;;;1.40;;
3415;SDS011;1721;51.238;9.562;2022-10-23T03:15:00;8.87;;;1.47;;
3415;SDS011;1721;51.238;9.562;2022-10-23T03:17:26;9.30;;;1.60;;
3415;SDS011;1721;51.238;9.562;2022-10-23T03:19:51;6.22;;;1.30;;
3415;SDS011;1721;51.238;9.562;2022-10-23T03:22:17;17.08;;;4.22;;
3415;SDS011;1721;51.238;9.562;2022-10-23T03:24:43;17.40;;;8.07;;
3415;SDS011;1721;51.238;9.562;2022-10-23T03:27:08;13.97;;;6.30;;
3415;SDS011;1721;51.238;9.562;2022-10-23T03:29:35;8.88;;;2.95;;
3415;SDS011;1721;51.238;9.562;2022-10-23T03:32:01;10.98;;;1.70;;
3415;SDS011;1721;51.238;9.562;2022-10-23T03:34:28;6.10;;;1.30;;
3415;SDS011;1721;51.238;9.562;2022-10-23T03:36:53;5.55;;;1.23;;
3415;SDS011;1721;51.238;9.562;2022-10-23T03:39:19;7.10;;;1.30;;
3415;SDS011;1721;51.238;9.562;2022-10-23T03:41:45;4.67;;;1.40;;
3415;SDS011;1721;51.238;9.562;2022-10-23T03:44:10;5.40;;;1.30;;
3415;SDS011;1721;51.238;9.562;2022-10-23T03:46:36;3.90;;;1.02;;
3415;SDS011;1721;51.238;9.562;2022-10-23T03:49:01;3.80;;;1.40;;
3415;SDS011;1721;51.238;9.562;2022-10-23T03:51:27;11.23;;;1.10;;
3415;SDS011;1721;51.238;9.562;2022-10-23T03:53:53;3.87;;;1.30;;
3415;SDS011;1721;51.238;9.562;2022-10-23T03:56:19;5.30;;;1.10;;
3415;SDS011;1721;51.238;9.562;2022-10-23T03:58:45;3.67;;;1.20;;
3415;SDS011;1721;51.238;9.562;2022-10-23T04:01:10;10.17;;;1.70;;
3415;SDS011;1721;51.238;9.562;2022-10-23T04:03:36;8.30;;;1.40;;
3415;SDS011;1721;51.238;9.562;2022-10-23T04:06:01;5.90;;;1.60;;
3415;SDS011;1721;51.238;9.562;2022-10-23T04:08:27;3.70;;;1.23;;
3415;SDS011;1721;51.238;9.562;2022-10-23T04:10:53;10.20;;;1.10;;
3415;SDS011;1721;51.238;9.562;2022-10-23T04:13:19;8.40;;;1.20;;
3415;SDS011;1721;51.238;9.562;2022-10-23T04:15:50;5.07;;;1.30;;
3415;SDS011;1721;51.238;9.562;2022-10-23T04:18:17;3.65;;;1.20;;
3415;SDS011;1721;51.238;9.562;2022-10-23T04:20:45;9.00;;;1.40;;
3415;SDS011;1721;51.238;9.562;2022-10-23T04:23:13;4.30;;;1.30;;
3415;SDS011;1721;51.238;9.562;2022-10-23T04:25:39;7.30;;;1.52;;
3415;SDS011;1721;51.238;9.562;2022-10-23T04:28:04;3.50;;;1.20;;
3415;SDS011;1721;51.238;9.562;2022-10-23T04:30:30;6.03;;;1.50;;
3415;SDS011;1721;51.238;9.562;2022-10-23T04:32:55;6.97;;;1.20;;
3415;SDS011;1721;51.238;9.562;2022-10-23T04:35:21;4.50;;;1.42;;
3415;SDS011;1721;51.238;9.562;2022-10-23T04:37:46;7.97;;;1.30;;
3415;SDS011;1721;51.238;9.562;2022-10-23T04:40:12;3.10;;;1.00;;
3415;SDS011;1721;51.238;9.562;2022-10-23T04:42:37;7.00;;;1.20;;
3415;SDS011;1721;51.238;9.562;2022-10-23T04:45:03;4.20;;;1.30;;
3415;SDS011;1721;51.238;9.562;2022-10-23T04:47:29;7.13;;;1.35;;
3415;SDS011;1721;51.238;9.562;2022-10-23T04:49:55;3.47;;;1.00;;
3415;SDS011;1721;51.238;9.562;2022-10-23T04:52:20;7.20;;;1.20;;
3415;SDS011;1721;51.238;9.562;2022-10-23T04:54:46;5.10;;;1.13;;
3415;SDS011;1721;51.238;9.562;2022-10-23T04:57:12;11.90;;;1.60;;
3415;SDS011;1721;51.238;9.562;2022-10-23T04:59:37;7.30;;;1.30;;
3415;SDS011;1721;51.238;9.562;2022-10-23T05:02:03;3.83;;;1.30;;
3415;SDS011;1721;51.238;9.562;2022-10-23T05:04:29;7.60;;;1.50;;
3415;SDS011;1721;51.238;9.562;2022-10-23T05:06:54;4.23;;;1.30;;
3415;SDS011;1721;51.238;9.562;2022-10-23T05:09:20;5.22;;;1.30;;
3415;SDS011;1721;51.238;9.562;2022-10-23T05:11:46;7.22;;;1.40;;
3415;SDS011;1721;51.238;9.562;2022-10-23T05:14:12;11.48;;;1.30;;
3415;SDS011;1721;51.238;9.562;2022-10-23T05:16:57;8.90;;;1.40;;
3415;SDS011;1721;51.238;9.562;2022-10-23T05:19:28;5.35;;;1.20;;
3415;SDS011;1721;51.238;9.562;2022-10-23T05:21:58;5.40;;;1.50;;
3415;SDS011;1721;51.238;9.562;2022-10-23T05:24:25;8.20;;;1.20;;
3415;SDS011;1721;51.238;9.562;2022-10-23T05:26:51;7.97;;;2.23;;
3415;SDS011;1721;51.238;9.562;2022-10-23T05:29:17;10.15;;;2.10;;
3415;SDS011;1721;51.238;9.562;2022-10-23T05:31:44;9.10;;;1.60;;
3415;SDS011;1721;51.238;9.562;2022-10-23T05:34:11;4.50;;;1.40;;
3415;SDS011;1721;51.238;9.562;2022-10-23T05:36:40;13.07;;;1.60;;
3415;SDS011;1721;51.238;9.562;2022-10-23T05:39:06;3.58;;;1.20;;
3415;SDS011;1721;51.238;9.562;2022-10-23T05:41:32;8.90;;;1.20;;
3415;SDS011;1721;51.238;9.562;2022-10-23T05:43:58;6.00;;;1.40;;
3415;SDS011;1721;51.238;9.562;2022-10-23T05:59:35;8.82;;;2.40;;
3415;SDS011;1721;51.238;9.562;2022-10-23T06:02:00;7.30;;;2.00;;
3415;SDS011;1721;51.238;9.562;2022-10-23T06:04:26;7.83;;;2.40;;
3415;SDS011;1721;51.238;9.562;2022-10-23T06:06:52;5.57;;;2.00;;
3415;SDS011;1721;51.238;9.562;2022-10-23T06:09:17;7.20;;;2.10;;
3415;SDS011;1721;51.238;9.562;2022-10-23T06:11:43;6.07;;;1.50;;
3415;SDS011;1721;51.238;9.562;2022-10-23T06:14:08;6.60;;;2.20;;
3415;SDS011;1721;51.238;9.562;2022-10-23T06:16:34;5.18;;;1.88;;
3415;SDS011;1721;51.238;9.562;2022-10-23T06:19:00;9.77;;;1.90;;
3415;SDS011;1721;51.238;9.562;2022-10-23T06:21:25;10.40;;;2.20;;
3415;SDS011;1721;51.238;9.562;2022-10-23T06:23:51;14.80;;;2.10;;
3415;SDS011;1721;51.238;9.562;2022-10-23T06:26:17;17.30;;;2.03;;
3415;SDS011;1721;51.238;9.562;2022-10-23T06:28:43;6.05;;;2.00;;
3415;SDS011;1721;51.238;9.562;2022-10-23T06:31:12;6.55;;;1.70;;
3415;SDS011;1721;51.238;9.562;2022-10-23T06:33:40;14.30;;;2.17;;
3415;SDS011;1721;51.238;9.562;2022-10-23T06:36:06;40.95;;;3.20;;
3415;SDS011;1721;51.238;9.562;2022-10-23T06:38:34;6.28;;;1.98;;
3415;SDS011;1721;51.238;9.562;2022-10-23T06:41:01;8.37;;;2.90;;
3415;SDS011;1721;51.238;9.562;2022-10-23T06:43:29;7.97;;;1.70;;
3415;SDS011;1721;51.238;9.562;2022-10-23T06:45:54;12.68;;;1.60;;
3415;SDS011;1721;51.238;9.562;2022-10-23T06:48:20;5.53;;;1.70;;
3415;SDS011;1721;51.238;9.562;2022-10-23T06:50:45;10.77;;;2.10;;
3415;SDS011;1721;51.238;9.562;2022-10-23T06:53:11;8.15;;;2.35;;
3415;SDS011;1721;51.238;9.562;2022-10-23T06:55:36;11.77;;;2.30;;
3415;SDS011;1721;51.238;9.562;2022-10-23T06:58:04;4.20;;;1.55;;
3415;SDS011;1721;51.238;9.562;2022-10-23T07:00:34;7.28;;;1.60;;
3415;SDS011;1721;51.238;9.562;2022-10-23T07:03:02;5.20;;;1.60;;
3415;SDS011;1721;51.238;9.562;2022-10-23T07:05:28;5.30;;;1.73;;
3415;SDS011;1721;51.238;9.562;2022-10-23T07:07:54;7.33;;;1.70;;
3415;SDS011;1721;51.238;9.562;2022-10-23T07:10:20;6.00;;;1.40;;
3415;SDS011;1721;51.238;9.562;2022-10-23T07:12:45;6.75;;;1.60;;
3415;SDS011;1721;51.238;9.562;2022-10-23T07:15:12;5.18;;;1.38;;
3415;SDS011;1721;51.238;9.562;2022-10-23T07:17:39;4.30;;;1.20;;
3415;SDS011;1721;51.238;9.562;2022-10-23T07:20:04;3.70;;;1.00;;
3415;SDS011;1721;51.238;9.562;2022-10-23T07:22:30;5.22;;;1.20;;
3415;SDS011;1721;51.238;9.562;2022-10-23T07:24:56;4.03;;;1.17;;
3415;SDS011;1721;51.238;9.562;2022-10-23T07:27:21;6.30;;;2.60;;
3415;SDS011;1721;51.238;9.562;2022-10-23T07:29:51;9.10;;;2.10;;
3415;SDS011;1721;51.238;9.562;2022-10-23T07:32:17;6.55;;;2.50;;
3415;SDS011;1721;51.238;9.562;2022-10-23T07:34:43;7.57;;;2.00;;
3415;SDS011;1721;51.238;9.562;2022-10-23T07:37:08;13.13;;;2.30;;
3415;SDS011;1721;51.238;9.562;2022-10-23T07:39:34;7.63;;;2.50;;
3415;SDS011;1721;51.238;9.562;2022-10-23T07:42:00;6.85;;;2.30;;
3415;SDS011;1721;51.238;9.562;2022-10-23T07:44:25;7.55;;;2.22;;
3415;SDS011;1721;51.238;9.562;2022-10-23T07:46:51;7.35;;;1.83;;
3415;SDS011;1721;51.238;9.562;2022-10-23T07:49:16;5.13;;;1.40;;
3415;SDS011;1721;51.238;9.562;2022-10-23T07:51:42;5.90;;;1.40;;
3415;SDS011;1721;51.238;9.562;2022-10-23T07:54:09;5.53;;;1.40;;
3415;SDS011;1721;51.238;9.562;2022-10-23T07:56:36;5.78;;;1.10;;
3415;SDS011;1721;51.238;9.562;2022-10-23T07:59:02;4.90;;;1.20;;
3415;SDS011;1721;51.238;9.562;2022-10-23T08:03:55;8.20;;;1.17;;
3415;SDS011;1721;51.238;9.562;2022-10-23T08:06:21;10.60;;;1.40;;
3415;SDS011;1721;51.238;9.562;2022-10-23T08:08:47;4.35;;;1.20;;
3415;SDS011;1721;51.238;9.562;2022-10-23T08:11:13;5.18;;;1.20;;
3415;SDS011;1721;51.238;9.562;2022-10-23T08:13:41;9.38;;;1.10;;
3415;SDS011;1721;51.238;9.562;2022-10-23T08:16:08;6.57;;;1.58;;
3415;SDS011;1721;51.238;9.562;2022-10-23T08:18:34;6.35;;;1.50;;
3415;SDS011;1721;51.238;9.562;2022-10-23T08:21:00;4.28;;;1.20;;
3415;SDS011;1721;51.238;9.562;2022-10-23T08:23:27;6.85;;;1.10;;
3415;SDS011;1721;51.238;9.562;2022-10-23T08:25:57;5.63;;;1.25;;
3415;SDS011;1721;51.238;9.562;2022-10-23T08:28:25;3.47;;;1.00;;
3415;SDS011;1721;51.238;9.562;2022-10-23T08:30:52;7.60;;;1.10;;
3415;SDS011;1721;51.238;9.562;2022-10-23T08:33:18;6.30;;;1.20;;
3415;SDS011;1721;51.238;9.562;2022-10-23T08:35:43;7.33;;;1.10;;
3415;SDS011;1721;51.238;9.562;2022-10-23T08:38:09;4.95;;;1.17;;
3415;SDS011;1721;51.238;9.562;2022-10-23T08:40:35;4.30;;;1.40;;
3415;SDS011;1721;51.238;9.562;2022-10-23T08:45:30;4.63;;;1.20;;
3415;SDS011;1721;51.238;9.562;2022-10-23T08:50:55;5.90;;;1.20;;
3415;SDS011;1721;51.238;9.562;2022-10-23T08:56:21;3.30;;;1.00;;
3415;SDS011;1721;51.238;9.562;2022-10-23T08:59:03;4.60;;;1.20;;
3415;SDS011;1721;51.238;9.562;2022-10-23T09:01:42;3.33;;;1.05;;
3415;SDS011;1721;51.238;9.562;2022-10-23T09:04:13;3.97;;;1.15;;
3415;SDS011;1721;51.238;9.562;2022-10-23T09:06:49;6.17;;;1.00;;
3415;SDS011;1721;51.238;9.562;2022-10-23T09:09:28;5.40;;;1.60;;
3415;SDS011;1721;51.238;9.562;2022-10-23T09:12:27;5.45;;;1.30;;
3415;SDS011;1721;51.238;9.562;2022-10-23T09:15:02;4.10;;;1.00;;
3415;SDS011;1721;51.238;9.562;2022-10-23T09:17:46;7.22;;;1.10;;
3415;SDS011;1721;51.238;9.562;2022-10-23T09:20:22;11.00;;;1.50;;
3415;SDS011;1721;51.238;9.562;2022-10-23T09:22:53;6.90;;;1.10;;
3415;SDS011;1721;51.238;9.562;2022-10-23T09:25:26;4.63;;;1.50;;
3415;SDS011;1721;51.238;9.562;2022-10-23T09:27:55;6.97;;;0.90;;
3415;SDS011;1721;51.238;9.562;2022-10-23T09:32:54;3.80;;;1.00;;
3415;SDS011;1721;51.238;9.562;2022-10-23T09:35:23;5.00;;;0.90;;
3415;SDS011;1721;51.238;9.562;2022-10-23T09:37:50;4.60;;;1.30;;
3415;SDS011;1721;51.238;9.562;2022-10-23T09:40:22;5.05;;;1.13;;
3415;SDS011;1721;51.238;9.562;2022-10-23T09:43:13;3.97;;;1.13;;
3415;SDS011;1721;51.238;9.562;2022-10-23T09:45:40;7.73;;;1.07;;
3415;SDS011;1721;51.238;9.562;2022-10-23T09:48:17;4.80;;;1.20;;
3415;SDS011;1721;51.238;9.562;2022-10-23T09:50:53;8.75;;;1.00;;
3415;SDS011;1721;51.238;9.562;2022-10-23T09:53:31;7.03;;;1.00;;
3415;SDS011;1721;51.238;9.562;2022-10-23T09:56:04;4.10;;;1.15;;
3415;SDS011;1721;51.238;9.562;2022-10-23T09:58:36;8.90;;;1.30;;
3415;SDS011;1721;51.238;9.562;2022-10-23T10:01:20;6.32;;;0.95;;
3415;SDS011;1721;51.238;9.562;2022-10-23T10:03:48;5.45;;;0.90;;
3415;SDS011;1721;51.238;9.562;2022-10-23T10:06:20;3.90;;;1.05;;
3415;SDS011;1721;51.238;9.562;2022-10-23T10:08:49;3.50;;;1.20;;
3415;SDS011;1721;51.238;9.562;2022-10-23T10:14:03;4.95;;;1.30;;
3415;SDS011;1721;51.238;9.562;2022-10-23T10:22:32;4.03;;;1.27;;
3415;SDS011;1721;51.238;9.562;2022-10-23T10:25:20;3.42;;;0.80;;
3415;SDS011;1721;51.238;9.562;2022-10-23T10:30:36;5.47;;;1.10;;
3415;SDS011;1721;51.238;9.562;2022-10-23T10:33:08;4.43;;;1.10;;
3415;SDS011;1721;51.238;9.562;2022-10-23T10:38:33;5.82;;;1.00;;
3415;SDS011;1721;51.238;9.562;2022-10-23T10:41:11;4.90;;;1.15;;
3415;SDS011;1721;51.238;9.562;2022-10-23T10:43:59;5.40;;;1.20;;
3415;SDS011;1721;51.238;9.562;2022-10-23T10:46:37;4.63;;;1.15;;
3415;SDS011;1721;51.238;9.562;2022-10-23T10:49:13;7.20;;;1.10;;
3415;SDS011;1721;51.238;9.562;2022-10-23T10:52:11;4.60;;;1.10;;
3415;SDS011;1721;51.238;9.562;2022-10-23T10:54:55;9.15;;;1.23;;
3415;SDS011;1721;51.238;9.562;2022-10-23T10:57:35;4.10;;;1.00;;
3415;SDS011;1721;51.238;9.562;2022-10-23T11:00:15;3.97;;;0.98;;
3415;SDS011;1721;51.238;9.562;2022-10-23T11:02:47;8.30;;;1.10;;
3415;SDS011;1721;51.238;9.562;2022-10-23T11:05:17;9.95;;;1.10;;
3415;SDS011;1721;51.238;9.562;2022-10-23T11:07:57;6.55;;;1.10;;
3415;SDS011;1721;51.238;9.562;2022-10-23T11:10:31;6.60;;;1.00;;
3415;SDS011;1721;51.238;9.562;2022-10-23T11:12:57;6.63;;;1.00;;
3415;SDS011;1721;51.238;9.562;2022-10-23T11:15:27;5.80;;;0.90;;
3415;SDS011;1721;51.238;9.562;2022-10-23T11:18:03;3.30;;;1.08;;
3415;SDS011;1721;51.238;9.562;2022-10-23T11:23:26;4.90;;;1.00;;
3415;SDS011;1721;51.238;9.562;2022-10-23T11:26:39;6.07;;;1.00;;
3415;SDS011;1721;51.238;9.562;2022-10-23T11:32:27;4.40;;;1.20;;
3415;SDS011;1721;51.238;9.562;2022-10-23T11:38:12;9.00;;;1.00;;
3415;SDS011;1721;51.238;9.562;2022-10-23T11:40:48;7.43;;;1.10;;
3415;SDS011;1721;51.238;9.562;2022-10-23T11:43:29;4.68;;;1.30;;
3415;SDS011;1721;51.238;9.562;2022-10-23T11:45:57;4.30;;;1.00;;
3415;SDS011;1721;51.238;9.562;2022-10-23T11:48:36;3.67;;;1.10;;
3415;SDS011;1721;51.238;9.562;2022-10-23T11:51:03;5.30;;;0.90;;
3415;SDS011;1721;51.238;9.562;2022-10-23T11:55:56;4.75;;;1.10;;
3415;SDS011;1721;51.238;9.562;2022-10-23T11:58:27;7.50;;;1.10;;
3415;SDS011;1721;51.238;9.562;2022-10-23T12:01:29;5.53;;;1.00;;
3415;SDS011;1721;51.238;9.562;2022-10-23T12:06:58;4.82;;;0.90;;
3415;SDS011;1721;51.238;9.562;2022-10-23T12:12:04;7.60;;;1.20;;
3415;SDS011;1721;51.238;9.562;2022-10-23T12:14:47;11.03;;;1.10;;
3415;SDS011;1721;51.238;9.562;2022-10-23T12:17:26;5.03;;;1.00;;
3415;SDS011;1721;51.238;9.562;2022-10-23T12:22:31;5.55;;;1.25;;
3415;SDS011;1721;51.238;9.562;2022-10-23T12:25:15;6.90;;;1.00;;
3415;SDS011;1721;51.238;9.562;2022-10-23T12:28:00;3.80;;;1.10;;
3415;SDS011;1721;51.238;9.562;2022-10-23T12:33:43;3.47;;;0.90;;
3415;SDS011;1721;51.238;9.562;2022-10-23T12:38:47;3.15;;;1.00;;
3415;SDS011;1721;51.238;9.562;2022-10-23T12:43:57;7.35;;;1.20;;
3415;SDS011;1721;51.238;9.562;2022-10-23T12:49:01;4.20;;;1.10;;
3415;SDS011;1721;51.238;9.562;2022-10-23T12:51:35;3.50;;;1.10;;
3415;SDS011;1721;51.238;9.562;2022-10-23T12:54:01;6.38;;;1.30;;
3415;SDS011;1721;51.238;9.562;2022-10-23T12:56:33;3.67;;;1.20;;
3415;SDS011;1721;51.238;9.562;2022-10-23T12:59:00;6.43;;;1.10;;
3415;SDS011;1721;51.238;9.562;2022-10-23T13:01:30;8.10;;;1.50;;
3415;SDS011;1721;51.238;9.562;2022-10-23T13:04:02;5.95;;;1.40;;
3415;SDS011;1721;51.238;9.562;2022-10-23T13:06:35;7.40;;;1.40;;
3415;SDS011;1721;51.238;9.562;2022-10-23T13:09:05;4.53;;;1.60;;
3415;SDS011;1721;51.238;9.562;2022-10-23T13:11:48;6.78;;;1.40;;
3415;SDS011;1721;51.238;9.562;2022-10-23T13:14:25;4.65;;;1.50;;
3415;SDS011;1721;51.238;9.562;2022-10-23T13:16:59;5.43;;;1.55;;
3415;SDS011;1721;51.238;9.562;2022-10-23T13:19:28;7.78;;;1.45;;
3415;SDS011;1721;51.238;9.562;2022-10-23T13:21:54;4.70;;;1.70;;
3415;SDS011;1721;51.238;9.562;2022-10-23T13:24:21;7.78;;;1.80;;
3415;SDS011;1721;51.238;9.562;2022-10-23T13:26:48;5.75;;;1.52;;
3415;SDS011;1721;51.238;9.562;2022-10-23T13:29:18;5.83;;;1.30;;
3415;SDS011;1721;51.238;9.562;2022-10-23T13:31:47;7.93;;;1.70;;
3415;SDS011;1721;51.238;9.562;2022-10-23T13:36:51;11.80;;;1.47;;
3415;SDS011;1721;51.238;9.562;2022-10-23T13:39:21;8.60;;;1.30;;
3415;SDS011;1721;51.238;9.562;2022-10-23T13:41:48;4.32;;;1.38;;
3415;SDS011;1721;51.238;9.562;2022-10-23T13:44:15;5.03;;;1.37;;
3415;SDS011;1721;51.238;9.562;2022-10-23T13:46:42;6.13;;;1.40;;
3415;SDS011;1721;51.238;9.562;2022-10-23T13:49:08;5.40;;;1.20;;
3415;SDS011;1721;51.238;9.562;2022-10-23T13:51:35;5.88;;;1.30;;
3415;SDS011;1721;51.238;9.562;2022-10-23T13:54:11;6.05;;;1.20;;
3415;SDS011;1721;51.238;9.562;2022-10-23T13:56:39;4.85;;;1.00;;
3415;SDS011;1721;51.238;9.562;2022-10-23T13:59:05;8.10;;;1.20;;
3415;SDS011;1721;51.238;9.562;2022-10-23T14:01:33;5.65;;;1.17;;
3415;SDS011;1721;51.238;9.562;2022-10-23T14:04:00;5.53;;;1.10;;
3415;SDS011;1721;51.238;9.562;2022-10-23T14:06:28;5.65;;;1.50;;
3415;SDS011;1721;51.238;9.562;2022-10-23T14:08:53;4.15;;;1.30;;
3415;SDS011;1721;51.238;9.562;2022-10-23T14:11:19;5.25;;;1.70;;
3415;SDS011;1721;51.238;9.562;2022-10-23T14:13:45;9.95;;;2.80;;
3415;SDS011;1721;51.238;9.562;2022-10-23T14:16:11;10.37;;;2.47;;
3415;SDS011;1721;51.238;9.562;2022-10-23T14:18:39;6.95;;;1.73;;
3415;SDS011;1721;51.238;9.562;2022-10-23T14:21:05;5.83;;;1.40;;
3415;SDS011;1721;51.238;9.562;2022-10-23T14:23:32;7.32;;;1.70;;
3415;SDS011;1721;51.238;9.562;2022-10-23T14:26:08;5.67;;;1.50;;
3415;SDS011;1721;51.238;9.562;2022-10-23T14:28:35;4.60;;;1.30;;
3415;SDS011;1721;51.238;9.562;2022-10-23T14:31:05;5.30;;;1.60;;
3415;SDS011;1721;51.238;9.562;2022-10-23T14:33:34;3.90;;;1.30;;
3415;SDS011;1721;51.238;9.562;2022-10-23T14:36:00;6.90;;;1.43;;
3415;SDS011;1721;51.238;9.562;2022-10-23T14:38:26;6.33;;;1.23;;
3415;SDS011;1721;51.238;9.562;2022-10-23T14:40:52;6.55;;;1.20;;
3415;SDS011;1721;51.238;9.562;2022-10-23T14:43:17;7.32;;;1.70;;
3415;SDS011;1721;51.238;9.562;2022-10-23T14:45:43;6.00;;;1.50;;
3415;SDS011;1721;51.238;9.562;2022-10-23T14:48:09;8.77;;;1.40;;
3415;SDS011;1721;51.238;9.562;2022-10-23T14:50:35;5.97;;;1.25;;
3415;SDS011;1721;51.238;9.562;2022-10-23T14:53:06;3.80;;;1.10;;
3415;SDS011;1721;51.238;9.562;2022-10-23T14:55:31;9.90;;;1.40;;
3415;SDS011;1721;51.238;9.562;2022-10-23T14:57:57;5.20;;;1.30;;
3415;SDS011;1721;51.238;9.562;2022-10-23T15:00:22;13.00;;;1.60;;
3415;SDS011;1721;51.238;9.562;2022-10-23T15:02:48;13.13;;;1.40;;
3415;SDS011;1721;51.238;9.562;2022-10-23T15:05:14;5.82;;;1.13;;
3415;SDS011;1721;51.238;9.562;2022-10-23T15:07:40;5.10;;;1.20;;
3415;SDS011;1721;51.238;9.562;2022-10-23T15:10:06;6.68;;;1.30;;
3415;SDS011;1721;51.238;9.562;2022-10-23T15:12:33;3.90;;;1.30;;
3415;SDS011;1721;51.238;9.562;2022-10-23T15:14:59;8.63;;;1.23;;
3415;SDS011;1721;51.238;9.562;2022-10-23T15:17:25;3.50;;;1.10;;
3415;SDS011;1721;51.238;9.562;2022-10-23T15:19:51;6.13;;;1.40;;
3415;SDS011;1721;51.238;9.562;2022-10-23T15:22:17;6.97;;;1.30;;
3415;SDS011;1721;51.238;9.562;2022-10-23T15:24:44;5.07;;;1.30;;
3415;SDS011;1721;51.238;9.562;2022-10-23T15:27:10;6.82;;;1.60;;
3415;SDS011;1721;51.238;9.562;2022-10-23T15:29:35;8.77;;;1.60;;
3415;SDS011;1721;51.238;9.562;2022-10-23T15:32:02;9.25;;;1.65;;
3415;SDS011;1721;51.238;9.562;2022-10-23T15:34:29;4.95;;;1.48;;
3415;SDS011;1721;51.238;9.562;2022-10-23T15:36:56;7.90;;;2.00;;
3415;SDS011;1721;51.238;9.562;2022-10-23T15:39:23;7.28;;;2.10;;
3415;SDS011;1721;51.238;9.562;2022-10-23T15:41:51;8.15;;;1.40;;
3415;SDS011;1721;51.238;9.562;2022-10-23T15:44:20;10.32;;;1.90;;
3415;SDS011;1721;51.238;9.562;2022-10-23T15:46:47;4.88;;;1.70;;
3415;SDS011;1721;51.238;9.562;2022-10-23T15:49:14;6.03;;;1.70;;
3415;SDS011;1721;51.238;9.562;2022-10-23T15:51:40;4.70;;;1.63;;
3415;SDS011;1721;51.238;9.562;2022-10-23T15:54:06;6.95;;;1.80;;
3415;SDS011;1721;51.238;9.562;2022-10-23T15:56:34;4.17;;;1.30;;
3415;SDS011;1721;51.238;9.562;2022-10-23T15:59:00;9.65;;;1.70;;
3415;SDS011;1721;51.238;9.562;2022-10-23T16:01:26;9.10;;;1.70;;
3415;SDS011;1721;51.238;9.562;2022-10-23T16:03:52;8.25;;;1.55;;
3415;SDS011;1721;51.238;9.562;2022-10-23T16:06:18;7.78;;;1.65;;
3415;SDS011;1721;51.238;9.562;2022-10-23T16:08:44;4.60;;;1.40;;
3415;SDS011;1721;51.238;9.562;2022-10-23T16:11:12;5.60;;;1.60;;
3415;SDS011;1721;51.238;9.562;2022-10-23T16:13:38;4.50;;;1.50;;
3415;SDS011;1721;51.238;9.562;2022-10-23T16:16:04;4.80;;;1.53;;
3415;SDS011;1721;51.238;9.562;2022-10-23T16:18:30;6.10;;;1.60;;
3415;SDS011;1721;51.238;9.562;2022-10-23T16:20:55;4.53;;;1.60;;
3415;SDS011;1721;51.238;9.562;2022-10-23T16:23:21;4.78;;;1.70;;
3415;SDS011;1721;51.238;9.562;2022-10-23T16:25:46;4.50;;;1.77;;
3415;SDS011;1721;51.238;9.562;2022-10-23T16:28:12;6.60;;;1.70;;
3415;SDS011;1721;51.238;9.562;2022-10-23T16:30:41;4.80;;;1.50;;
3415;SDS011;1721;51.238;9.562;2022-10-23T16:33:07;4.07;;;1.60;;
3415;SDS011;1721;51.238;9.562;2022-10-23T16:35:33;4.63;;;1.52;;
3415;SDS011;1721;51.238;9.562;2022-10-23T16:37:59;6.23;;;1.50;;
3415;SDS011;1721;51.238;9.562;2022-10-23T16:40:25;9.75;;;1.38;;
3415;SDS011;1721;51.238;9.562;2022-10-23T16:42:51;5.18;;;1.50;;
3415;SDS011;1721;51.238;9.562;2022-10-23T16:45:16;4.13;;;1.30;;
3415;SDS011;1721;51.238;9.562;2022-10-23T16:47:42;4.10;;;1.50;;
3415;SDS011;1721;51.238;9.562;2022-10-23T16:50:08;5.67;;;1.50;;
3415;SDS011;1721;51.238;9.562;2022-10-23T16:52:33;6.20;;;1.60;;
3415;SDS011;1721;51.238;9.562;2022-10-23T16:54:59;4.40;;;1.30;;
3415;SDS011;1721;51.238;9.562;2022-10-23T16:57:24;9.07;;;1.52;;
3415;SDS011;1721;51.238;9.562;2022-10-23T16:59:53;4.30;;;1.50;;
3415;SDS011;1721;51.238;9.562;2022-10-23T17:02:19;5.20;;;1.70;;
3415;SDS011;1721;51.238;9.562;2022-10-23T17:04:44;4.57;;;1.38;;
3415;SDS011;1721;51.238;9.562;2022-10-23T17:07:10;8.20;;;1.50;;
3415;SDS011;1721;51.238;9.562;2022-10-23T17:09:39;4.60;;;1.40;;
3415;SDS011;1721;51.238;9.562;2022-10-23T17:12:04;7.10;;;1.60;;